Time,TemperatureF,DewpointF,PressureIn,WindDirection,WindDirectionDegrees,WindSpeedMPH,WindSpeedGustMPH,Humidity,HourlyPrecipIn,Conditions,Clouds,dailyrainin,SoftwareType,DateUTC
2013-09-28 00:57:00,65.1,50.6,29.22,SE,135,0.0,0.0,59,0.00,,,0.00,WUHU21623XXSP,2013-09-28 05:57:00,
2013-09-28 01:57:00,64.8,51.6,29.22,South,180,4.5,4.5,62,0.00,,,0.00,WUHU21623XXSP,2013-09-28 06:57:00,
2013-09-28 02:57:00,64.9,52.2,29.20,West,270,1.6,1.6,63,0.00,,,0.00,WUHU21623XXSP,2013-09-28 07:57:00,
2013-09-28 03:57:00,64.9,52.6,29.19,SSE,158,2.9,2.9,64,0.00,,,0.00,WUHU21623XXSP,2013-09-28 08:57:00,
2013-09-28 04:57:00,65.1,52.8,29.20,South,180,3.4,3.4,64,0.00,,,0.00,WUHU21623XXSP,2013-09-28 09:57:00,
2013-09-28 05:57:00,65.5,53.2,29.21,SSE,158,2.7,2.7,64,0.00,,,0.00,WUHU21623XXSP,2013-09-28 10:57:00,
2013-09-28 06:48:00,65.1,53.0,29.21,SE,135,0.0,0.0,65,0.00,,,0.00,WUHU21623XXSP,2013-09-28 11:48:00,
2013-09-28 06:53:00,65.1,53.0,29.21,SE,135,0.0,6.3,65,0.00,,,0.00,WUHU21623XXSP,2013-09-28 11:53:00,
2013-09-28 06:58:00,65.1,53.0,29.21,NE,45,3.1,6.3,65,0.00,,,0.00,WUHU21623XXSP,2013-09-28 11:58:00,
2013-09-28 07:03:00,65.1,53.0,29.21,South,180,1.6,4.3,65,0.00,,,0.00,WUHU21623XXSP,2013-09-28 12:03:00,
2013-09-28 07:08:00,65.3,53.2,29.21,SE,135,0.0,5.1,65,0.00,,,0.00,WUHU21623XXSP,2013-09-28 12:08:00,
2013-09-28 07:13:00,65.3,53.2,29.21,SE,135,0.0,5.1,65,0.00,,,0.00,WUHU21623XXSP,2013-09-28 12:13:00,
2013-09-28 07:18:00,65.3,53.2,29.21,South,180,0.7,1.3,65,0.00,,,0.00,WUHU21623XXSP,2013-09-28 12:18:00,
2013-09-28 07:23:00,65.3,53.2,29.20,SE,135,3.1,5.4,65,0.00,,,0.00,WUHU21623XXSP,2013-09-28 12:23:00,
2013-09-28 07:28:00,65.5,53.4,29.20,SE,135,6.0,7.6,65,0.00,,,0.00,WUHU21623XXSP,2013-09-28 12:28:00,
2013-09-28 07:33:00,65.5,53.4,29.20,South,180,1.8,7.6,65,0.00,,,0.00,WUHU21623XXSP,2013-09-28 12:33:00,
2013-09-28 07:38:00,65.7,53.5,29.20,SE,135,0.0,4.0,65,0.00,,,0.00,WUHU21623XXSP,2013-09-28 12:38:00,
2013-09-28 07:43:00,65.7,53.5,29.21,South,180,1.1,4.0,65,0.00,,,0.00,WUHU21623XXSP,2013-09-28 12:43:00,
2013-09-28 07:48:00,65.8,53.7,29.21,SE,135,2.7,2.7,65,0.00,,,0.00,WUHU21623XXSP,2013-09-28 12:48:00,
2013-09-28 07:53:00,66.0,53.9,29.20,WSW,247,3.8,6.0,65,0.00,,,0.00,WUHU21623XXSP,2013-09-28 12:53:00,
2013-09-28 07:59:00,66.0,53.9,29.20,SE,135,0.0,6.0,65,0.00,,,0.00,WUHU21623XXSP,2013-09-28 12:59:00,
2013-09-28 08:04:00,66.2,53.9,29.20,SW,225,2.7,3.8,65,0.00,,,0.00,WUHU21623XXSP,2013-09-28 13:04:00,
2013-09-28 08:09:00,66.6,54.2,29.20,South,180,0.0,2.7,65,0.00,,,0.00,WUHU21623XXSP,2013-09-28 13:09:00,
2013-09-28 08:14:00,66.7,54.4,29.20,South,180,0.0,0.0,65,0.00,,,0.00,WUHU21623XXSP,2013-09-28 13:14:00,
2013-09-28 08:19:00,66.7,54.6,29.20,ESE,112,8.1,8.1,65,0.00,,,0.00,WUHU21623XXSP,2013-09-28 13:19:00,
2013-09-28 08:24:00,66.9,54.7,29.20,WSW,247,0.0,8.1,65,0.00,,,0.00,WUHU21623XXSP,2013-09-28 13:24:00,
2013-09-28 08:29:00,67.1,54.7,29.20,South,180,0.0,0.0,65,0.00,,,0.00,WUHU21623XXSP,2013-09-28 13:29:00,
2013-09-28 08:34:00,67.3,54.9,29.20,SSW,202,1.1,1.1,65,0.00,,,0.00,WUHU21623XXSP,2013-09-28 13:34:00,
2013-09-28 08:39:00,67.8,55.4,29.20,South,180,0.0,1.1,65,0.00,,,0.00,WUHU21623XXSP,2013-09-28 13:39:00,
2013-09-28 08:44:00,68.2,55.9,29.19,South,180,2.9,2.9,65,0.00,,,0.00,WUHU21623XXSP,2013-09-28 13:44:00,
2013-09-28 08:49:00,68.5,56.1,29.19,SSE,157,0.9,2.9,65,0.00,,,0.00,WUHU21623XXSP,2013-09-28 13:49:00,
2013-09-28 08:54:00,68.9,56.4,29.19,ESE,112,4.9,4.9,65,0.00,,,0.00,WUHU21623XXSP,2013-09-28 13:54:00,
2013-09-28 08:59:00,69.3,56.9,29.19,South,180,8.1,8.1,65,0.00,,,0.00,WUHU21623XXSP,2013-09-28 13:59:00,
2013-09-28 09:04:00,69.6,56.9,29.19,SW,225,0.0,8.1,64,0.00,,,0.00,WUHU21623XXSP,2013-09-28 14:04:00,
2013-09-28 09:09:00,70.3,57.4,29.19,SW,225,0.0,2.0,64,0.00,,,0.00,WUHU21623XXSP,2013-09-28 14:09:00,
2013-09-28 09:14:00,70.7,57.7,29.19,SE,135,5.6,5.6,64,0.00,,,0.00,WUHU21623XXSP,2013-09-28 14:14:00,
2013-09-28 09:19:00,71.1,58.1,29.19,SSE,157,5.4,5.6,64,0.00,,,0.00,WUHU21623XXSP,2013-09-28 14:19:00,
2013-09-28 09:24:00,71.6,58.1,29.18,SSE,157,5.4,5.4,63,0.00,,,0.00,WUHU21623XXSP,2013-09-28 14:24:00,
2013-09-28 09:29:00,72.0,58.6,29.18,SSE,157,0.0,5.4,63,0.00,,,0.00,WUHU21623XXSP,2013-09-28 14:29:00,
2013-09-28 09:34:00,72.5,59.0,29.18,SE,135,1.1,5.4,63,0.00,,,0.00,WUHU21623XXSP,2013-09-28 14:34:00,
2013-09-28 09:39:00,73.0,59.0,29.17,SE,135,4.3,4.3,62,0.00,,,0.00,WUHU21623XXSP,2013-09-28 14:39:00,
2013-09-28 09:44:00,73.2,59.4,29.17,SSE,157,1.6,4.3,62,0.00,,,0.00,WUHU21623XXSP,2013-09-28 14:44:00,
2013-09-28 09:49:00,73.6,59.5,29.17,SSE,157,1.6,1.6,62,0.00,,,0.00,WUHU21623XXSP,2013-09-28 14:49:00,
2013-09-28 09:54:00,74.1,59.8,29.18,SW,225,1.1,7.2,61,0.00,,,0.00,WUHU21623XXSP,2013-09-28 14:54:00,
2013-09-28 09:59:00,74.8,60.5,29.18,SE,135,5.6,7.2,61,0.00,,,0.00,WUHU21623XXSP,2013-09-28 14:59:00,
2013-09-28 10:04:00,75.0,60.7,29.18,West,270,6.3,6.3,61,0.00,,,0.00,WUHU21623XXSP,2013-09-28 15:04:00,
2013-09-28 10:09:00,75.6,60.6,29.17,West,270,6.3,6.3,60,0.00,,,0.00,WUHU21623XXSP,2013-09-28 15:09:00,
2013-09-28 10:14:00,75.9,61.1,29.16,SE,135,5.8,6.3,60,0.00,,,0.00,WUHU21623XXSP,2013-09-28 15:14:00,
2013-09-28 10:19:00,76.6,61.7,29.16,SSE,157,0.0,6.7,60,0.00,,,0.00,WUHU21623XXSP,2013-09-28 15:19:00,
2013-09-28 10:24:00,76.8,61.4,29.16,SE,135,1.3,6.7,59,0.00,,,0.00,WUHU21623XXSP,2013-09-28 15:24:00,
2013-09-28 10:29:00,77.4,61.9,29.16,SSW,202,1.6,4.7,59,0.00,,,0.00,WUHU21623XXSP,2013-09-28 15:29:00,
2013-09-28 10:34:00,77.9,62.4,29.17,SW,225,5.8,5.8,59,0.00,,,0.00,WUHU21623XXSP,2013-09-28 15:34:00,
2013-09-28 10:39:00,78.4,62.5,29.16,SW,225,2.5,5.8,58,0.00,,,0.00,WUHU21623XXSP,2013-09-28 15:39:00,
2013-09-28 10:44:00,78.6,62.5,29.16,East,90,0.0,2.7,58,0.00,,,0.00,WUHU21623XXSP,2013-09-28 15:44:00,
2013-09-28 10:49:00,79.0,62.5,29.17,West,270,6.7,6.7,57,0.00,,,0.00,WUHU21623XXSP,2013-09-28 15:49:00,
2013-09-28 10:54:00,79.3,62.8,29.16,ESE,112,3.4,6.7,57,0.00,,,0.00,WUHU21623XXSP,2013-09-28 15:54:00,
2013-09-28 10:59:00,79.5,62.9,29.16,South,180,0.0,6.5,57,0.00,,,0.00,WUHU21623XXSP,2013-09-28 15:59:00,
2013-09-28 11:04:00,79.9,62.6,29.16,South,180,0.0,6.5,56,0.00,,,0.00,WUHU21623XXSP,2013-09-28 16:04:00,
2013-09-28 11:09:00,80.1,62.9,29.16,WSW,247,3.8,3.8,56,0.00,,,0.00,WUHU21623XXSP,2013-09-28 16:09:00,
2013-09-28 11:14:00,80.4,63.1,29.15,SW,225,6.5,6.5,56,0.00,,,0.00,WUHU21623XXSP,2013-09-28 16:14:00,
2013-09-28 11:19:00,80.8,63.0,29.15,WSW,247,4.3,6.5,55,0.00,,,0.00,WUHU21623XXSP,2013-09-28 16:19:00,
2013-09-28 11:24:00,81.1,63.4,29.15,West,270,1.6,7.4,55,0.00,,,0.00,WUHU21623XXSP,2013-09-28 16:24:00,
2013-09-28 11:29:00,81.1,63.4,29.15,SSE,157,6.0,7.4,55,0.00,,,0.00,WUHU21623XXSP,2013-09-28 16:29:00,
2013-09-28 11:34:00,81.0,62.7,29.15,West,270,6.0,6.9,54,0.00,,,0.00,WUHU21623XXSP,2013-09-28 16:34:00,
2013-09-28 11:39:00,80.6,62.5,29.15,SW,225,8.7,8.7,54,0.00,,,0.00,WUHU21623XXSP,2013-09-28 16:39:00,
2013-09-28 11:44:00,80.4,62.7,29.15,SSE,157,5.1,8.7,55,0.00,,,0.00,WUHU21623XXSP,2013-09-28 16:44:00,
2013-09-28 11:49:00,79.7,62.1,29.14,SSE,157,9.6,9.6,55,0.00,,,0.00,WUHU21623XXSP,2013-09-28 16:49:00,
2013-09-28 11:54:00,79.5,61.9,29.14,SW,225,0.0,9.6,55,0.00,,,0.00,WUHU21623XXSP,2013-09-28 16:54:00,
2013-09-28 11:59:00,79.3,61.7,29.14,SSE,157,2.7,7.2,55,0.00,,,0.00,WUHU21623XXSP,2013-09-28 16:59:00,
2013-09-28 12:04:00,79.0,61.9,29.14,ESE,112,3.8,7.2,56,0.00,,,0.00,WUHU21623XXSP,2013-09-28 17:04:00,
2013-09-28 12:09:00,78.6,61.6,29.14,SE,135,0.0,5.1,56,0.00,,,0.00,WUHU21623XXSP,2013-09-28 17:09:00,
2013-09-28 12:14:00,78.6,62.1,29.14,West,270,1.1,6.9,57,0.00,,,0.00,WUHU21623XXSP,2013-09-28 17:14:00,
2013-09-28 12:19:00,78.3,61.8,29.14,WSW,247,0.0,6.9,57,0.00,,,0.00,WUHU21623XXSP,2013-09-28 17:19:00,
2013-09-28 12:24:00,78.1,61.6,29.14,SW,225,4.5,4.5,57,0.00,,,0.00,WUHU21623XXSP,2013-09-28 17:24:00,
2013-09-28 12:29:00,78.1,61.6,29.14,South,180,4.9,5.1,57,0.00,,,0.00,WUHU21623XXSP,2013-09-28 17:29:00,
2013-09-28 12:34:00,77.9,61.4,29.14,SW,225,0.7,7.8,57,0.00,,,0.00,WUHU21623XXSP,2013-09-28 17:34:00,
2013-09-28 12:39:00,77.9,62.1,29.14,SSW,202,6.7,7.8,58,0.00,,,0.00,WUHU21623XXSP,2013-09-28 17:39:00,
2013-09-28 12:44:00,77.9,61.9,29.14,SW,225,4.7,6.7,58,0.00,,,0.00,WUHU21623XXSP,2013-09-28 17:44:00,
2013-09-28 12:49:00,77.7,61.8,29.14,SSW,202,0.9,6.7,58,0.00,,,0.00,WUHU21623XXSP,2013-09-28 17:49:00,
2013-09-28 12:54:00,77.5,61.6,29.13,West,270,2.2,6.7,58,0.00,,,0.00,WUHU21623XXSP,2013-09-28 17:54:00,
2013-09-28 12:59:00,77.5,61.6,29.14,NNW,337,6.7,6.7,58,0.00,,,0.00,WUHU21623XXSP,2013-09-28 17:59:00,
2013-09-28 13:04:00,77.5,61.8,29.13,SE,135,0.0,6.7,58,0.00,,,0.00,WUHU21623XXSP,2013-09-28 18:04:00,
2013-09-28 13:09:00,77.5,62.1,29.13,SSW,202,0.0,4.9,59,0.00,,,0.00,WUHU21623XXSP,2013-09-28 18:09:00,
2013-09-28 13:14:00,77.5,62.1,29.13,SW,225,3.4,3.6,59,0.00,,,0.00,WUHU21623XXSP,2013-09-28 18:14:00,
2013-09-28 13:19:00,77.5,62.1,29.13,SSW,202,4.5,4.5,59,0.00,,,0.00,WUHU21623XXSP,2013-09-28 18:19:00,
2013-09-28 13:24:00,77.5,62.1,29.13,WSW,247,1.8,4.5,59,0.00,,,0.00,WUHU21623XXSP,2013-09-28 18:24:00,
2013-09-28 13:29:00,77.5,62.1,29.13,East,90,2.9,10.5,59,0.00,,,0.00,WUHU21623XXSP,2013-09-28 18:29:00,
2013-09-28 13:34:00,77.5,62.1,29.13,SW,225,5.4,10.5,59,0.00,,,0.00,WUHU21623XXSP,2013-09-28 18:34:00,
2013-09-28 13:39:00,77.5,62.1,29.13,South,180,2.7,5.4,59,0.00,,,0.00,WUHU21623XXSP,2013-09-28 18:39:00,
2013-09-28 13:44:00,77.4,62.4,29.12,WSW,247,2.2,5.4,60,0.00,,,0.00,WUHU21623XXSP,2013-09-28 18:44:00,
2013-09-28 13:49:00,77.0,62.1,29.13,NNE,22,0.0,5.4,60,0.00,,,0.00,WUHU21623XXSP,2013-09-28 18:49:00,
2013-09-28 13:54:00,76.8,62.3,29.13,SSW,202,0.0,3.4,61,0.00,,,0.00,WUHU21623XXSP,2013-09-28 18:54:00,
2013-09-28 13:59:00,76.5,62.5,29.13,West,270,0.0,2.2,62,0.00,,,0.00,WUHU21623XXSP,2013-09-28 18:59:00,
2013-09-28 14:04:00,75.7,63.5,29.13,SSE,157,6.5,6.5,66,0.00,,,0.00,WUHU21623XXSP,2013-09-28 19:04:00,
2013-09-28 14:09:00,75.0,63.3,29.13,WSW,247,3.1,6.5,67,0.00,,,0.00,WUHU21623XXSP,2013-09-28 19:09:00,
2013-09-28 14:14:00,74.8,63.6,29.13,SW,225,11.0,11.0,68,0.00,,,0.00,WUHU21623XXSP,2013-09-28 19:14:00,
2013-09-28 14:19:00,74.1,63.8,29.14,SW,225,14.3,14.3,70,0.00,,,0.00,WUHU21623XXSP,2013-09-28 19:19:00,
2013-09-28 14:24:00,73.9,63.6,29.14,West,270,0.0,14.3,70,0.00,,,0.00,WUHU21623XXSP,2013-09-28 19:24:00,
2013-09-28 14:29:00,73.6,64.1,29.14,SSW,202,4.5,8.7,72,0.00,,,0.00,WUHU21623XXSP,2013-09-28 19:29:00,
2013-09-28 14:34:00,73.0,63.9,29.14,WSW,247,2.0,4.5,73,0.00,,,0.00,WUHU21623XXSP,2013-09-28 19:34:00,
2013-09-28 14:39:00,72.5,63.8,29.14,WSW,247,5.1,5.1,74,0.00,,,0.00,WUHU21623XXSP,2013-09-28 19:39:00,
2013-09-28 14:44:00,72.1,63.8,29.13,West,270,0.0,5.4,75,0.03,,,0.03,WUHU21623XXSP,2013-09-28 19:44:00,
2013-09-28 14:49:00,72.0,63.6,29.13,West,270,1.3,5.4,75,0.03,,,0.03,WUHU21623XXSP,2013-09-28 19:49:00,
2013-09-28 14:54:00,72.0,64.0,29.13,WNW,292,0.0,1.8,76,0.03,,,0.03,WUHU21623XXSP,2013-09-28 19:54:00,
2013-09-28 14:59:00,71.8,63.8,29.13,WNW,292,0.0,0.0,76,0.03,,,0.03,WUHU21623XXSP,2013-09-28 19:59:00,
2013-09-28 15:04:00,71.8,64.2,29.12,SSE,157,0.0,0.0,77,0.03,,,0.03,WUHU21623XXSP,2013-09-28 20:04:00,
2013-09-28 15:09:00,72.0,64.2,29.12,SSW,202,0.0,0.0,77,0.03,,,0.03,WUHU21623XXSP,2013-09-28 20:09:00,
2013-09-28 15:14:00,72.0,64.3,29.12,SW,225,3.8,3.8,77,0.03,,,0.03,WUHU21623XXSP,2013-09-28 20:14:00,
2013-09-28 15:19:00,72.0,64.7,29.13,West,270,0.0,3.8,78,0.03,,,0.03,WUHU21623XXSP,2013-09-28 20:19:00,
2013-09-28 15:24:00,72.0,64.7,29.13,SW,225,0.0,3.8,78,0.03,,,0.03,WUHU21623XXSP,2013-09-28 20:24:00,
2013-09-28 15:30:00,71.8,64.5,29.13,West,270,0.7,4.0,78,0.03,,,0.03,WUHU21623XXSP,2013-09-28 20:30:00,
2013-09-28 15:35:00,71.4,64.6,29.13,West,270,1.3,4.0,79,0.03,,,0.03,WUHU21623XXSP,2013-09-28 20:35:00,
2013-09-28 15:40:00,71.2,64.0,29.13,West,270,0.4,1.3,78,0.00,,,0.03,WUHU21623XXSP,2013-09-28 20:40:00,
2013-09-28 15:45:00,70.9,64.4,29.13,West,270,0.7,0.7,79,0.03,,,0.05,WUHU21623XXSP,2013-09-28 20:45:00,
2013-09-28 15:50:00,70.9,64.0,29.13,SSE,157,3.4,3.4,80,0.03,,,0.05,WUHU21623XXSP,2013-09-28 20:50:00,
2013-09-28 15:55:00,70.7,64.2,29.13,West,270,1.1,3.4,80,0.03,,,0.05,WUHU21623XXSP,2013-09-28 20:55:00,
2013-09-28 16:00:00,70.5,64.0,29.12,SW,225,0.0,12.3,80,0.03,,,0.05,WUHU21623XXSP,2013-09-28 21:00:00,
2013-09-28 16:05:00,70.3,64.2,29.13,SSW,202,3.1,12.3,81,0.03,,,0.05,WUHU21623XXSP,2013-09-28 21:05:00,
2013-09-28 16:10:00,70.3,64.2,29.13,WNW,292,0.0,3.1,81,0.03,,,0.05,WUHU21623XXSP,2013-09-28 21:10:00,
2013-09-28 16:15:00,70.3,64.2,29.13,WSW,247,6.3,6.3,81,0.05,,,0.08,WUHU21623XXSP,2013-09-28 21:15:00,
2013-09-28 16:20:00,70.3,64.2,29.13,WSW,247,6.3,6.3,81,0.05,,,0.08,WUHU21623XXSP,2013-09-28 21:20:00,
2013-09-28 16:25:00,70.2,64.0,29.13,WSW,247,0.0,6.3,81,0.05,,,0.08,WUHU21623XXSP,2013-09-28 21:25:00,
2013-09-28 16:30:00,70.2,64.0,29.13,West,270,1.6,6.7,81,0.05,,,0.08,WUHU21623XXSP,2013-09-28 21:30:00,
2013-09-28 16:35:00,70.2,64.4,29.13,SW,225,4.9,6.7,82,0.05,,,0.08,WUHU21623XXSP,2013-09-28 21:35:00,
2013-09-28 16:40:00,70.2,64.4,29.13,South,180,2.0,4.9,82,0.03,,,0.08,WUHU21623XXSP,2013-09-28 21:40:00,
2013-09-28 16:45:00,70.0,64.2,29.13,SSW,202,7.6,7.6,82,0.03,,,0.08,WUHU21623XXSP,2013-09-28 21:45:00,
2013-09-28 16:50:00,70.0,64.2,29.13,South,180,0.0,7.6,82,0.03,,,0.08,WUHU21623XXSP,2013-09-28 21:50:00,
2013-09-28 16:55:00,70.2,64.4,29.12,West,270,0.0,7.6,82,0.03,,,0.08,WUHU21623XXSP,2013-09-28 21:55:00,
2013-09-28 17:00:00,70.2,64.4,29.14,SSW,202,0.9,2.0,82,0.03,,,0.08,WUHU21623XXSP,2013-09-28 22:00:00,
2013-09-28 17:05:00,70.2,64.4,29.14,WSW,247,3.4,3.4,82,0.03,,,0.08,WUHU21623XXSP,2013-09-28 22:05:00,
2013-09-28 17:10:00,70.2,64.4,29.13,SSW,202,0.0,3.4,82,0.03,,,0.08,WUHU21623XXSP,2013-09-28 22:10:00,
2013-09-28 17:15:00,70.2,64.4,29.14,SSW,202,5.6,5.6,82,0.00,,,0.08,WUHU21623XXSP,2013-09-28 22:15:00,
2013-09-28 17:20:00,70.2,64.4,29.14,WSW,247,0.0,5.6,82,0.00,,,0.08,WUHU21623XXSP,2013-09-28 22:20:00,
2013-09-28 17:25:00,70.0,64.2,29.13,WSW,247,2.9,5.6,82,0.00,,,0.08,WUHU21623XXSP,2013-09-28 22:25:00,
2013-09-28 17:30:00,70.0,64.2,29.13,SSW,202,0.0,2.9,82,0.00,,,0.08,WUHU21623XXSP,2013-09-28 22:30:00,
2013-09-28 17:35:00,70.2,64.4,29.13,WSW,247,2.0,2.0,82,0.00,,,0.08,WUHU21623XXSP,2013-09-28 22:35:00,
2013-09-28 17:40:00,70.2,64.4,29.13,WSW,247,0.0,2.0,82,0.00,,,0.08,WUHU21623XXSP,2013-09-28 22:40:00,
2013-09-28 17:45:00,70.2,64.2,29.13,SW,225,0.0,2.0,82,0.00,,,0.08,WUHU21623XXSP,2013-09-28 22:45:00,
2013-09-28 17:50:00,70.2,64.4,29.13,SSE,157,0.7,0.7,82,0.00,,,0.08,WUHU21623XXSP,2013-09-28 22:50:00,
2013-09-28 17:55:00,70.2,64.4,29.13,SW,225,1.6,6.5,82,0.00,,,0.08,WUHU21623XXSP,2013-09-28 22:55:00,
2013-09-28 18:00:00,70.2,64.7,29.13,West,270,1.1,6.5,83,0.00,,,0.08,WUHU21623XXSP,2013-09-28 23:00:00,
2013-09-28 18:05:00,70.2,64.7,29.13,SW,225,0.0,2.7,83,0.00,,,0.08,WUHU21623XXSP,2013-09-28 23:05:00,
2013-09-28 18:10:00,70.0,64.5,29.13,WSW,247,2.5,4.7,83,0.00,,,0.08,WUHU21623XXSP,2013-09-28 23:10:00,
2013-09-28 18:15:00,70.0,64.5,29.12,SSW,202,0.0,4.7,83,0.00,,,0.08,WUHU21623XXSP,2013-09-28 23:15:00,
2013-09-28 18:20:00,70.0,64.5,29.13,West,270,2.2,2.2,83,0.00,,,0.08,WUHU21623XXSP,2013-09-28 23:20:00,
2013-09-28 18:25:00,69.3,62.1,29.15,NNE,22,0.0,11.4,78,0.00,,,0.08,WUHU21623XXSP,2013-09-28 23:25:00,
2013-09-28 18:30:00,67.8,60.8,29.16,NNW,337,0.0,11.4,78,0.00,,,0.08,WUHU21623XXSP,2013-09-28 23:30:00,
2013-09-28 18:35:00,67.3,60.6,29.15,ENE,67,0.0,0.0,79,0.00,,,0.08,WUHU21623XXSP,2013-09-28 23:35:00,
2013-09-28 18:40:00,66.2,59.5,29.16,WNW,292,2.2,2.2,79,0.00,,,0.08,WUHU21623XXSP,2013-09-28 23:40:00,
2013-09-28 18:45:00,65.5,58.8,29.16,North,0,0.0,2.2,79,0.00,,,0.08,WUHU21623XXSP,2013-09-28 23:45:00,
2013-09-28 18:50:00,65.1,58.8,29.16,WSW,247,1.3,1.3,80,0.00,,,0.08,WUHU21623XXSP,2013-09-28 23:50:00,
2013-09-28 18:55:00,64.6,58.3,29.16,NE,45,0.0,1.3,80,0.00,,,0.08,WUHU21623XXSP,2013-09-28 23:55:00,
2013-09-28 19:00:00,64.2,57.9,29.17,NE,45,0.0,2.0,80,0.00,,,0.08,WUHU21623XXSP,2013-09-29 00:00:00,
2013-09-28 19:05:00,64.0,58.1,29.18,WNW,292,0.0,2.0,81,0.00,,,0.08,WUHU21623XXSP,2013-09-29 00:05:00,
2013-09-28 19:10:00,63.5,57.2,29.17,NNE,22,0.0,1.1,80,0.00,,,0.08,WUHU21623XXSP,2013-09-29 00:10:00,
2013-09-28 19:15:00,63.3,57.0,29.18,WNW,292,0.0,1.1,80,0.00,,,0.08,WUHU21623XXSP,2013-09-29 00:15:00,
2013-09-28 19:20:00,63.0,56.7,29.18,NE,45,1.1,1.1,80,0.03,,,0.11,WUHU21623XXSP,2013-09-29 00:20:00,
2013-09-28 19:25:00,62.4,56.1,29.19,NE,45,0.0,1.1,80,0.03,,,0.11,WUHU21623XXSP,2013-09-29 00:25:00,
2013-09-28 19:30:00,62.2,56.0,29.19,NNE,22,0.0,1.1,80,0.03,,,0.11,WUHU21623XXSP,2013-09-29 00:30:00,
2013-09-28 19:35:00,62.1,55.8,29.19,NE,45,0.0,0.0,80,0.03,,,0.11,WUHU21623XXSP,2013-09-29 00:35:00,
2013-09-28 19:40:00,61.9,56.0,29.19,SW,225,0.0,0.0,81,0.03,,,0.11,WUHU21623XXSP,2013-09-29 00:40:00,
2013-09-28 19:45:00,61.9,56.0,29.19,NE,45,0.0,0.0,81,0.03,,,0.11,WUHU21623XXSP,2013-09-29 00:45:00,
2013-09-28 19:50:00,61.7,55.8,29.18,NE,45,0.0,0.0,81,0.03,,,0.11,WUHU21623XXSP,2013-09-29 00:50:00,
2013-09-28 19:55:00,61.3,55.5,29.20,West,270,0.0,0.0,81,0.03,,,0.11,WUHU21623XXSP,2013-09-29 00:55:00,
2013-09-28 20:00:00,61.3,55.5,29.20,NE,45,0.0,0.0,81,0.03,,,0.11,WUHU21623XXSP,2013-09-29 01:00:00,
2013-09-28 20:05:00,61.2,55.3,29.20,WNW,292,0.0,0.0,81,0.03,,,0.11,WUHU21623XXSP,2013-09-29 01:05:00,
2013-09-28 20:10:00,61.2,55.3,29.20,NW,315,0.0,0.0,81,0.03,,,0.11,WUHU21623XXSP,2013-09-29 01:10:00,
2013-09-28 20:15:00,61.2,55.3,29.20,West,270,0.0,0.0,81,0.03,,,0.13,WUHU21623XXSP,2013-09-29 01:15:00,
2013-09-28 20:20:00,61.0,55.2,29.19,WNW,292,0.0,0.0,81,0.03,,,0.13,WUHU21623XXSP,2013-09-29 01:20:00,
2013-09-28 20:25:00,61.0,55.2,29.20,West,270,0.0,0.0,81,0.03,,,0.13,WUHU21623XXSP,2013-09-29 01:25:00,
2013-09-28 20:30:00,60.6,55.0,29.20,WSW,247,2.9,2.9,81,0.03,,,0.13,WUHU21623XXSP,2013-09-29 01:30:00,
2013-09-28 20:35:00,60.1,54.3,29.20,North,0,0.0,2.9,81,0.03,,,0.13,WUHU21623XXSP,2013-09-29 01:35:00,
2013-09-28 20:40:00,60.1,54.6,29.20,NE,45,0.0,0.0,82,0.03,,,0.13,WUHU21623XXSP,2013-09-29 01:40:00,
2013-09-28 20:45:00,59.9,54.4,29.21,NE,45,0.0,0.0,82,0.03,,,0.13,WUHU21623XXSP,2013-09-29 01:45:00,
2013-09-28 20:50:00,59.7,54.2,29.21,NNE,22,0.0,0.0,82,0.03,,,0.13,WUHU21623XXSP,2013-09-29 01:50:00,
2013-09-28 20:55:00,59.5,54.1,29.21,NE,45,0.0,0.0,82,0.03,,,0.13,WUHU21623XXSP,2013-09-29 01:55:00,
2013-09-28 21:00:00,59.5,54.1,29.21,NE,45,0.0,0.0,82,0.03,,,0.13,WUHU21623XXSP,2013-09-29 02:00:00,
2013-09-28 21:05:00,59.5,54.1,29.21,NNE,22,0.0,5.4,82,0.03,,,0.13,WUHU21623XXSP,2013-09-29 02:05:00,
2013-09-28 21:10:00,59.4,54.2,29.21,NE,45,0.0,5.4,83,0.00,,,0.13,WUHU21623XXSP,2013-09-29 02:10:00,
2013-09-28 21:15:00,59.2,54.0,29.21,NE,45,0.0,2.2,83,0.00,,,0.13,WUHU21623XXSP,2013-09-29 02:15:00,
2013-09-28 21:20:00,59.2,54.0,29.22,NE,45,0.0,0.0,83,0.00,,,0.13,WUHU21623XXSP,2013-09-29 02:20:00,
2013-09-28 21:25:00,59.4,54.2,29.22,NNE,22,0.0,0.0,83,0.00,,,0.13,WUHU21623XXSP,2013-09-29 02:25:00,
2013-09-28 21:30:00,59.4,54.2,29.22,NNE,22,0.0,0.0,83,0.00,,,0.13,WUHU21623XXSP,2013-09-29 02:30:00,
2013-09-28 21:35:00,59.5,54.4,29.21,NNE,22,0.0,0.0,83,0.00,,,0.13,WUHU21623XXSP,2013-09-29 02:35:00,
2013-09-28 21:40:00,59.5,54.4,29.21,NNE,22,0.0,0.0,83,0.00,,,0.13,WUHU21623XXSP,2013-09-29 02:40:00,
2013-09-28 21:45:00,59.4,54.2,29.21,NNE,22,0.0,0.0,83,0.00,,,0.13,WUHU21623XXSP,2013-09-29 02:45:00,
2013-09-28 21:50:00,59.4,54.2,29.22,NNE,22,0.0,0.0,83,0.00,,,0.13,WUHU21623XXSP,2013-09-29 02:50:00,
2013-09-28 21:55:00,59.4,54.2,29.22,NNE,22,0.0,0.0,83,0.00,,,0.13,WUHU21623XXSP,2013-09-29 02:55:00,
2013-09-28 22:00:00,59.4,53.9,29.22,NNE,22,0.0,0.0,82,0.00,,,0.13,WUHU21623XXSP,2013-09-29 03:00:00,
2013-09-28 22:05:00,59.0,53.5,29.23,West,270,0.0,0.0,82,0.00,,,0.13,WUHU21623XXSP,2013-09-29 03:05:00,
2013-09-28 22:10:00,58.8,53.3,29.22,West,270,0.0,0.0,82,0.00,,,0.13,WUHU21623XXSP,2013-09-29 03:10:00,
2013-09-28 22:15:00,58.8,53.3,29.23,West,270,0.0,0.0,82,0.00,,,0.13,WUHU21623XXSP,2013-09-29 03:15:00,
2013-09-28 22:20:00,58.8,53.3,29.22,West,270,0.0,0.0,82,0.00,,,0.13,WUHU21623XXSP,2013-09-29 03:20:00,
2013-09-28 22:26:00,58.8,53.3,29.23,West,270,0.0,0.0,82,0.00,,,0.13,WUHU21623XXSP,2013-09-29 03:26:00,
2013-09-28 22:31:00,58.8,53.3,29.23,West,270,0.0,0.0,82,0.00,,,0.13,WUHU21623XXSP,2013-09-29 03:31:00,
2013-09-28 22:36:00,58.6,53.2,29.23,West,270,0.0,0.0,82,0.00,,,0.13,WUHU21623XXSP,2013-09-29 03:36:00,
2013-09-28 22:41:00,58.5,53.0,29.23,West,270,0.0,0.0,82,0.00,,,0.13,WUHU21623XXSP,2013-09-29 03:41:00,
2013-09-28 22:46:00,58.3,52.8,29.23,West,270,0.0,0.0,82,0.00,,,0.13,WUHU21623XXSP,2013-09-29 03:46:00,
2013-09-28 22:51:00,58.1,52.6,29.24,West,270,0.0,0.0,82,0.00,,,0.13,WUHU21623XXSP,2013-09-29 03:51:00,
2013-09-28 22:56:00,57.9,52.4,29.24,West,270,0.0,0.0,82,0.00,,,0.13,WUHU21623XXSP,2013-09-29 03:56:00,
2013-09-28 23:01:00,57.9,52.4,29.24,West,270,0.0,0.0,82,0.00,,,0.13,WUHU21623XXSP,2013-09-29 04:01:00,
2013-09-28 23:02:00,57.9,52.4,29.24,West,270,0.0,0.0,82,0.00,,,0.13,WUHU21623XXSP,2013-09-29 04:02:00,
2013-09-28 23:07:00,57.7,52.4,29.24,West,270,0.0,0.0,82,0.00,,,0.13,WUHU21623XXSP,2013-09-29 04:07:00,
2013-09-28 23:12:00,57.6,52.1,29.24,West,270,0.0,0.0,82,0.00,,,0.13,WUHU21623XXSP,2013-09-29 04:12:00,
2013-09-28 23:17:00,57.6,52.1,29.24,West,270,0.0,0.0,82,0.00,,,0.13,WUHU21623XXSP,2013-09-29 04:17:00,
2013-09-28 23:22:00,57.4,52.1,29.24,West,270,0.0,0.0,82,0.00,,,0.13,WUHU21623XXSP,2013-09-29 04:22:00,
2013-09-28 23:27:00,57.2,51.7,29.25,West,270,0.0,0.0,82,0.00,,,0.13,WUHU21623XXSP,2013-09-29 04:27:00,
2013-09-28 23:57:00,56.3,50.9,29.25,West,270,0.0,0.0,82,0.00,,,0.13,WUHU21623XXSP,2013-09-29 04:57:00,